Time;durP1;ratioP1;P1;durP2;ratioP2;P2;SDS_P1;SDS_P2;PMS_P1;PMS_P2;Temp;Humidity;BMP_temperature;BMP_pressure;BME280_temperature;BME280_humidity;BME280_pressure;Samples;Min_cycle;Max_cycle;Signal;HPM_P1;HPM_P2
2022/12/09 00:02:13;;;;;;;;;;;;;;;;;;5071905;28;20364;-61
2022/12/09 00:04:39;;;;;;;;;;;;;;;;;;5072227;28;20003;-59
2022/12/09 00:07:05;;;;;;;;;;;;;;;;;;5072025;28;20007;-60
2022/12/09 00:09:31;;;;;;;;;;;;;;;;;;5071859;28;20054;-57
2022/12/09 00:11:56;;;;;;;;;;;;;;;;;;5071873;28;20023;-61
2022/12/09 00:14:22;;;;;;;;;;;;;;;;;;5071937;28;19908;-62
2022/12/09 00:16:48;;;;;;;;;;;;;;;;;;5071666;28;19912;-62
2022/12/09 00:19:14;;;;;;;;;;;;;;;;;;5053680;28;20269;-61
2022/12/09 00:21:42;;;;;;;;;;;;;;;;;;5071701;28;19949;-59
2022/12/09 00:24:07;;;;;;;;;;;;;;;;;;5071798;28;19909;-61
2022/12/09 00:26:33;;;;;;;;;;;;;;;;;;5071824;28;19905;-60
2022/12/09 00:28:59;;;;;;;;;;;;;;;;;;5072246;28;20393;-59
2022/12/09 00:31:25;;;;;;;;;;;;;;;;;;5075520;28;19958;-59
2022/12/09 00:33:51;;;;;;;;;;;;;;;;;;5075653;28;19962;-61
2022/12/09 00:36:18;;;;;;;;;;;;;;;;;;5075564;28;19919;-60
2022/12/09 00:38:44;;;;;;;;;;;;;;;;;;5075381;28;20384;-60
2022/12/09 00:41:09;;;;;;;;;;;;;;;;;;5075527;28;20022;-60
2022/12/09 00:43:35;;;;;;;;;;;;;;;;;;5075420;28;19916;-61
2022/12/09 00:46:01;;;;;;;;;;;;;;;;;;5075257;28;20284;-61
2022/12/09 00:48:27;;;;;;;;;;;;;;;;;;5075367;28;19908;-60
2022/12/09 00:50:53;;;;;;;;;;;;;;;;;;5075336;28;19995;-60
2022/12/09 00:53:19;;;;;;;;;;;;;;;;;;5075205;28;19908;-61
2022/12/09 00:55:45;;;;;;;;;;;;;;;;;;5075125;28;19957;-60
2022/12/09 00:58:11;;;;;;;;;;;;;;;;;;5075037;28;19908;-61
2022/12/09 01:00:37;;;;;;;;;;;;;;;;;;5075051;28;20288;-61
2022/12/09 01:03:03;;;;;;;;;;;;;;;;;;5075023;28;20511;-58
2022/12/09 01:05:29;;;;;;;;;;;;;;;;;;5075119;28;19915;-58
2022/12/09 01:07:55;;;;;;;;;;;;;;;;;;5074959;28;19915;-59
2022/12/09 01:10:20;;;;;;;;;;;;;;;;;;5074838;28;19947;-60
2022/12/09 01:12:46;;;;;;;;;;;;;;;;;;5074924;28;20376;-60
2022/12/09 01:15:12;;;;;;;;;;;;;;;;;;5074743;28;20008;-58
2022/12/09 01:17:38;;;;;;;;;;;;;;;;;;5056865;28;19914;-60
2022/12/09 01:20:04;;;;;;;;;;;;;;;;;;5056724;28;19916;-59
2022/12/09 01:22:30;;;;;;;;;;;;;;;;;;5074642;28;19916;-60
2022/12/09 01:24:56;;;;;;;;;;;;;;;;;;5059526;28;19913;-61
2022/12/09 01:27:22;;;;;;;;;;;;;;;;;;5054592;28;20361;-58
2022/12/09 01:29:48;;;;;;;;;;;;;;;;;;5054270;28;19909;-61
2022/12/09 01:32:13;;;;;;;;;;;;;;;;;;5054502;28;19909;-60
2022/12/09 01:34:39;;;;;;;;;;;;;;;;;;5054689;28;19909;-60
2022/12/09 01:37:05;;;;;;;;;;;;;;;;;;5054410;28;20369;-59
2022/12/09 01:39:31;;;;;;;;;;;;;;;;;;5053072;28;19909;-59
2022/12/09 01:41:57;;;;;;;;;;;;;;;;;;5053233;28;19920;-59
2022/12/09 01:44:23;;;;;;;;;;;;;;;;;;5054331;28;19915;-60
2022/12/09 01:46:49;;;;;;;;;;;;;;;;;;5054195;28;19909;-56
2022/12/09 01:49:15;;;;;;;;;;;;;;;;;;5054156;28;20292;-59
2022/12/09 01:51:41;;;;;;;;;;;;;;;;;;5054119;28;19909;-59
2022/12/09 01:54:07;;;;;;;;;;;;;;;;;;5054201;28;20431;-59
2022/12/09 01:56:33;;;;;;;;;;;;;;;;;;5054113;28;19920;-61
2022/12/09 01:58:58;;;;;;;;;;;;;;;;;;5053827;28;19939;-61
2022/12/09 02:01:24;;;;;;;;;;;;;;;;;;5053927;28;19962;-61
2022/12/09 02:03:50;;;;;;;;;;;;;;;;;;5054001;28;19913;-60
2022/12/09 02:06:16;;;;;;;;;;;;;;;;;;5053934;28;20007;-61
2022/12/09 02:08:42;;;;;;;;;;;;;;;;;;5053713;28;20282;-60
2022/12/09 02:11:08;;;;;;;;;;;;;;;;;;5053907;28;20050;-61
2022/12/09 02:13:34;;;;;;;;;;;;;;;;;;5052394;28;19909;-61
2022/12/09 02:16:00;;;;;;;;;;;;;;;;;;5053667;28;19913;-57
2022/12/09 02:18:26;;;;;;;;;;;;;;;;;;5053725;28;19909;-59
2022/12/09 02:20:52;;;;;;;;;;;;;;;;;;5053657;28;19909;-60
2022/12/09 02:23:18;;;;;;;;;;;;;;;;;;5053672;28;19908;-60
2022/12/09 02:25:43;;;;;;;;;;;;;;;;;;5053625;28;19924;-60
2022/12/09 02:28:09;;;;;;;;;;;;;;;;;;5053269;28;20341;-59
2022/12/09 02:30:35;;;;;;;;;;;;;;;;;;5053443;28;20003;-59
2022/12/09 02:33:01;;;;;;;;;;;;;;;;;;5053513;28;19915;-59
2022/12/09 02:35:27;;;;;;;;;;;;;;;;;;5053323;28;19916;-59
2022/12/09 02:37:53;;;;;;;;;;;;;;;;;;5053322;28;19941;-62
2022/12/09 02:40:19;;;;;;;;;;;;;;;;;;5053211;28;19995;-58
2022/12/09 02:42:45;;;;;;;;;;;;;;;;;;5052955;28;19966;-61
2022/12/09 02:45:11;;;;;;;;;;;;;;;;;;5053390;28;19909;-61
2022/12/09 02:47:37;;;;;;;;;;;;;;;;;;5051830;28;19954;-60
2022/12/09 02:50:03;;;;;;;;;;;;;;;;;;5052939;28;19909;-61
2022/12/09 02:52:29;;;;;;;;;;;;;;;;;;5052780;28;19999;-61
2022/12/09 02:54:55;;;;;;;;;;;;;;;;;;5053074;28;19909;-61
2022/12/09 02:57:21;;;;;;;;;;;;;;;;;;5052687;28;19995;-59
2022/12/09 02:59:47;;;;;;;;;;;;;;;;;;5052738;28;20401;-58
2022/12/09 03:02:13;;;;;;;;;;;;;;;;;;5052761;28;19905;-61
2022/12/09 03:04:39;;;;;;;;;;;;;;;;;;5054895;28;19909;-60
2022/12/09 03:07:04;;;;;;;;;;;;;;;;;;5067041;28;19970;-59
2022/12/09 03:09:30;;;;;;;;;;;;;;;;;;5072609;28;19915;-61
2022/12/09 03:11:56;;;;;;;;;;;;;;;;;;5072587;28;19920;-58
2022/12/09 03:14:22;;;;;;;;;;;;;;;;;;5072729;28;19961;-61
2022/12/09 03:16:48;;;;;;;;;;;;;;;;;;5072711;28;19965;-58
2022/12/09 03:19:14;;;;;;;;;;;;;;;;;;5072545;28;20360;-59
2022/12/09 03:21:40;;;;;;;;;;;;;;;;;;5072498;28;19909;-60
2022/12/09 03:24:06;;;;;;;;;;;;;;;;;;5072578;28;19912;-60
2022/12/09 03:26:32;;;;;;;;;;;;;;;;;;5072466;28;20424;-60
2022/12/09 03:28:58;;;;;;;;;;;;;;;;;;5054414;28;19916;-58
2022/12/09 03:31:24;;;;;;;;;;;;;;;;;;5072477;28;19908;-61
2022/12/09 03:33:50;;;;;;;;;;;;;;;;;;5072392;28;20401;-61
2022/12/09 03:36:16;;;;;;;;;;;;;;;;;;5072372;28;19959;-60
2022/12/09 03:38:41;;;;;;;;;;;;;;;;;;5053342;28;19944;-60
2022/12/09 03:41:07;;;;;;;;;;;;;;;;;;5070324;28;19995;-61
2022/12/09 03:43:33;;;;;;;;;;;;;;;;;;5070248;28;20448;-60
2022/12/09 03:45:59;;;;;;;;;;;;;;;;;;5070494;28;20011;-60
2022/12/09 03:48:25;;;;;;;;;;;;;;;;;;5070771;28;19910;-61
2022/12/09 03:50:51;;;;;;;;;;;;;;;;;;5070960;28;19908;-59
2022/12/09 03:53:17;;;;;;;;;;;;;;;;;;5070756;28;20439;-62
2022/12/09 03:55:43;;;;;;;;;;;;;;;;;;5071628;28;20011;-59
2022/12/09 03:58:09;;;;;;;;;;;;;;;;;;5071884;28;19915;-59
2022/12/09 04:00:35;;;;;;;;;;;;;;;;;;5071629;28;19913;-59
2022/12/09 04:03:00;;;;;;;;;;;;;;;;;;5071358;28;19912;-60
2022/12/09 04:05:26;;;;;;;;;;;;;;;;;;5077860;28;19916;-60
2022/12/09 04:07:52;;;;;;;;;;;;;;;;;;5078596;28;20372;-61
2022/12/09 04:10:18;;;;;;;;;;;;;;;;;;5077949;28;19912;-61
2022/12/09 04:12:44;;;;;;;;;;;;;;;;;;5078526;28;19909;-61
2022/12/09 04:15:10;;;;;;;;;;;;;;;;;;5077331;28;19912;-59
2022/12/09 04:17:36;;;;;;;;;;;;;;;;;;5069995;28;20431;-58
2022/12/09 04:20:02;;;;;;;;;;;;;;;;;;5079974;28;19908;-59
2022/12/09 04:22:28;;;;;;;;;;;;;;;;;;5076266;28;19967;-60
2022/12/09 04:24:54;;;;;;;;;;;;;;;;;;5078454;28;20315;-59
2022/12/09 04:27:20;;;;;;;;;;;;;;;;;;5076889;28;19908;-61
2022/12/09 04:29:46;;;;;;;;;;;;;;;;;;5058275;28;19909;-62
2022/12/09 04:32:12;;;;;;;;;;;;;;;;;;5068901;28;19919;-59
2022/12/09 04:34:38;;;;;;;;;;;;;;;;;;5059356;28;20297;-61
2022/12/09 04:37:04;;;;;;;;;;;;;;;;;;5078290;28;19920;-60
2022/12/09 04:39:30;;;;;;;;;;;;;;;;;;5069045;28;20351;-61
2022/12/09 04:41:56;;;;;;;;;;;;;;;;;;5074126;28;20016;-60
2022/12/09 04:44:22;;;;;;;;;;;;;;;;;;5078385;28;19908;-61
2022/12/09 04:46:47;;;;;;;;;;;;;;;;;;5071436;28;20395;-60
2022/12/09 04:49:13;;;;;;;;;;;;;;;;;;5078004;28;20070;-61
2022/12/09 04:51:39;;;;;;;;;;;;;;;;;;5077849;28;20428;-61
2022/12/09 04:54:05;;;;;;;;;;;;;;;;;;5078142;28;19916;-61
2022/12/09 04:56:31;;;;;;;;;;;;;;;;;;5077285;28;19917;-59
2022/12/09 04:58:57;;;;;;;;;;;;;;;;;;5078105;28;19949;-60
2022/12/09 05:01:23;;;;;;;;;;;;;;;;;;5074065;28;19913;-60
2022/12/09 05:03:49;;;;;;;;;;;;;;;;;;5075709;28;20422;-59
2022/12/09 05:06:15;;;;;;;;;;;;;;;;;;5078385;28;19908;-61
2022/12/09 05:08:41;;;;;;;;;;;;;;;;;;5077883;28;19915;-59
2022/12/09 05:11:07;;;;;;;;;;;;;;;;;;5078185;28;19912;-61
2022/12/09 05:13:33;;;;;;;;;;;;;;;;;;5078095;28;19948;-61
2022/12/09 05:15:59;;;;;;;;;;;;;;;;;;5076182;28;19959;-61
2022/12/09 05:18:25;;;;;;;;;;;;;;;;;;5074833;28;20004;-61
2022/12/09 05:20:50;;;;;;;;;;;;;;;;;;5074873;28;19995;-60
2022/12/09 05:23:16;;;;;;;;;;;;;;;;;;5056742;28;19909;-61
2022/12/09 05:25:42;;;;;;;;;;;;;;;;;;5074963;28;19908;-61
2022/12/09 05:28:08;;;;;;;;;;;;;;;;;;5074496;28;19912;-61
2022/12/09 05:30:34;;;;;;;;;;;;;;;;;;5074646;28;19930;-61
2022/12/09 05:33:00;;;;;;;;;;;;;;;;;;5074634;28;19912;-61
2022/12/09 05:35:26;;;;;;;;;;;;;;;;;;5074618;28;19922;-56
2022/12/09 05:37:52;;;;;;;;;;;;;;;;;;5072827;28;19919;-60
2022/12/09 05:40:18;;;;;;;;;;;;;;;;;;5074356;28;19927;-61
2022/12/09 05:42:44;;;;;;;;;;;;;;;;;;5080438;22;19929;-60
2022/12/09 05:45:09;;;;;;;;;;;;;;;;;;5056712;28;19909;-61
2022/12/09 05:47:36;;;;;;;;;;;;;;;;;;5074426;28;19909;-59
2022/12/09 05:50:02;;;;;;;;;;;;;;;;;;5074287;28;19991;-60
2022/12/09 05:52:28;;;;;;;;;;;;;;;;;;5074173;28;19912;-60
2022/12/09 05:54:54;;;;;;;;;;;;;;;;;;5056334;28;19961;-62
2022/12/09 05:57:20;;;;;;;;;;;;;;;;;;5056248;28;19916;-62
2022/12/09 05:59:46;;;;;;;;;;;;;;;;;;5074089;28;20414;-61
2022/12/09 06:02:12;;;;;;;;;;;;;;;;;;5074109;28;19915;-60
2022/12/09 06:04:37;;;;;;;;;;;;;;;;;;5074122;28;19913;-61
2022/12/09 06:07:03;;;;;;;;;;;;;;;;;;5055969;28;19913;-60
2022/12/09 06:09:29;;;;;;;;;;;;;;;;;;5073903;28;20399;-60
2022/12/09 06:11:55;;;;;;;;;;;;;;;;;;5074004;28;19909;-61
2022/12/09 06:14:21;;;;;;;;;;;;;;;;;;5073951;28;19915;-61
2022/12/09 06:16:47;;;;;;;;;;;;;;;;;;5073871;28;20380;-60
2022/12/09 06:19:13;;;;;;;;;;;;;;;;;;5073664;28;19937;-60
2022/12/09 06:21:39;;;;;;;;;;;;;;;;;;5073560;28;19913;-60
2022/12/09 06:24:05;;;;;;;;;;;;;;;;;;5073607;28;19999;-61
2022/12/09 06:26:31;;;;;;;;;;;;;;;;;;5065260;28;19920;-61
2022/12/09 06:28:58;;;;;;;;;;;;;;;;;;5062275;28;20305;-60
2022/12/09 06:31:24;;;;;;;;;;;;;;;;;;5069862;28;19966;-61
2022/12/09 06:33:49;;;;;;;;;;;;;;;;;;5053396;28;19913;-61
2022/12/09 06:36:15;;;;;;;;;;;;;;;;;;5053362;28;19972;-60
2022/12/09 06:38:41;;;;;;;;;;;;;;;;;;5053419;28;19909;-61
2022/12/09 06:41:07;;;;;;;;;;;;;;;;;;5053543;28;19912;-61
2022/12/09 06:43:33;;;;;;;;;;;;;;;;;;5053099;28;20384;-61
2022/12/09 06:45:59;;;;;;;;;;;;;;;;;;5052747;28;19913;-60
2022/12/09 06:48:25;;;;;;;;;;;;;;;;;;5052704;28;19913;-60
2022/12/09 06:50:51;;;;;;;;;;;;;;;;;;5053046;28;19908;-60
2022/12/09 06:53:17;;;;;;;;;;;;;;;;;;5053058;28;19913;-61
2022/12/09 06:55:43;;;;;;;;;;;;;;;;;;5052943;28;20388;-61
2022/12/09 06:58:09;;;;;;;;;;;;;;;;;;5052773;28;20023;-61
2022/12/09 07:00:35;;;;;;;;;;;;;;;;;;5052909;28;19908;-61
2022/12/09 07:03:00;;;;;;;;;;;;;;;;;;5052845;28;19970;-61
2022/12/09 07:05:26;;;;;;;;;;;;;;;;;;5034876;28;19963;-60
2022/12/09 07:07:52;;;;;;;;;;;;;;;;;;5053063;28;19908;-61
2022/12/09 07:10:18;;;;;;;;;;;;;;;;;;5052757;28;20053;-60
2022/12/09 07:12:44;;;;;;;;;;;;;;;;;;5052603;28;20008;-61
2022/12/09 07:15:10;;;;;;;;;;;;;;;;;;5052633;28;20315;-61
2022/12/09 07:17:36;;;;;;;;;;;;;;;;;;5052508;28;19919;-61
2022/12/09 07:20:02;;;;;;;;;;;;;;;;;;5052380;28;19928;-61
2022/12/09 07:22:28;;;;;;;;;;;;;;;;;;5052645;28;19935;-61
2022/12/09 07:24:54;;;;;;;;;;;;;;;;;;5034662;28;19915;-61
2022/12/09 07:27:19;;;;;;;;;;;;;;;;;;5052483;28;19915;-60
2022/12/09 07:29:45;;;;;;;;;;;;;;;;;;5052296;28;19909;-61
2022/12/09 07:32:11;;;;;;;;;;;;;;;;;;5052824;28;19939;-60
2022/12/09 07:34:37;;;;;;;;;;;;;;;;;;5052319;28;20356;-61
2022/12/09 07:37:03;;;;;;;;;;;;;;;;;;5052287;28;20019;-61
2022/12/09 07:39:29;;;;;;;;;;;;;;;;;;5051300;28;19909;-60
2022/12/09 07:41:55;;;;;;;;;;;;;;;;;;5052122;28;19908;-60
2022/12/09 07:44:21;;;;;;;;;;;;;;;;;;5052267;28;19913;-61
2022/12/09 07:46:47;;;;;;;;;;;;;;;;;;5052157;28;19939;-60
2022/12/09 07:49:13;;;;;;;;;;;;;;;;;;5051981;28;20372;-60
2022/12/09 07:51:39;;;;;;;;;;;;;;;;;;5052157;28;19916;-60
2022/12/09 07:54:04;;;;;;;;;;;;;;;;;;5052059;28;19916;-61
2022/12/09 07:56:30;;;;;;;;;;;;;;;;;;5052080;28;19912;-61
2022/12/09 07:58:56;;;;;;;;;;;;;;;;;;5052009;28;19916;-61
2022/12/09 08:01:22;;;;;;;;;;;;;;;;;;5052096;28;19995;-61
2022/12/09 08:03:48;;;;;;;;;;;;;;;;;;5051890;28;19909;-57
2022/12/09 08:06:14;;;;;;;;;;;;;;;;;;5052164;28;20335;-61
2022/12/09 08:08:40;;;;;;;;;;;;;;;;;;5051898;28;20430;-61
2022/12/09 08:11:06;;;;;;;;;;;;;;;;;;5052000;28;19913;-60
2022/12/09 08:13:32;;;;;;;;;;;;;;;;;;5051863;28;19909;-60
2022/12/09 08:15:58;;;;;;;;;;;;;;;;;;5051826;28;19936;-60
2022/12/09 08:18:24;;;;;;;;;;;;;;;;;;5051992;28;20370;-61
2022/12/09 08:20:50;;;;;;;;;;;;;;;;;;5051877;28;19905;-59
2022/12/09 08:23:16;;;;;;;;;;;;;;;;;;5051876;28;19909;-61
2022/12/09 08:25:41;;;;;;;;;;;;;;;;;;5051807;28;19912;-59
2022/12/09 08:28:07;;;;;;;;;;;;;;;;;;5051587;28;20388;-61
2022/12/09 08:30:33;;;;;;;;;;;;;;;;;;5051754;28;19912;-60
2022/12/09 08:32:59;;;;;;;;;;;;;;;;;;5051674;28;19923;-60
2022/12/09 08:35:28;;;;;;;;;;;;;;;;;;5051675;28;20320;-60
2022/12/09 08:37:54;;;;;;;;;;;;;;;;;;5051722;28;19987;-60
2022/12/09 08:40:20;;;;;;;;;;;;;;;;;;5051926;28;19948;-61
2022/12/09 08:42:46;;;;;;;;;;;;;;;;;;5051455;28;20011;-61
2022/12/09 08:45:12;;;;;;;;;;;;;;;;;;5051497;28;20356;-60
2022/12/09 08:47:38;;;;;;;;;;;;;;;;;;5051537;28;19916;-61
2022/12/09 08:50:04;;;;;;;;;;;;;;;;;;5052234;28;19915;-61
2022/12/09 08:52:30;;;;;;;;;;;;;;;;;;5055349;28;20381;-61
2022/12/09 08:54:55;;;;;;;;;;;;;;;;;;5037546;28;19967;-61
2022/12/09 08:57:22;;;;;;;;;;;;;;;;;;5055209;28;20377;-61
2022/12/09 08:59:48;;;;;;;;;;;;;;;;;;5054985;28;19913;-59
2022/12/09 09:02:14;;;;;;;;;;;;;;;;;;5055325;28;19916;-60
2022/12/09 09:04:40;;;;;;;;;;;;;;;;;;5055181;28;19924;-59
2022/12/09 09:07:06;;;;;;;;;;;;;;;;;;5055181;28;19909;-57
2022/12/09 09:09:31;;;;;;;;;;;;;;;;;;5054933;28;19954;-55
2022/12/09 09:11:57;;;;;;;;;;;;;;;;;;5054977;28;20323;-58
2022/12/09 09:14:23;;;;;;;;;;;;;;;;;;5054937;28;19909;-56
2022/12/09 09:16:49;;;;;;;;;;;;;;;;;;5054802;28;20067;-59
2022/12/09 09:19:15;;;;;;;;;;;;;;;;;;5054773;28;20049;-59
2022/12/09 09:21:41;;;;;;;;;;;;;;;;;;5054869;28;20023;-56
2022/12/09 09:24:07;;;;;;;;;;;;;;;;;;5054725;28;19912;-59
2022/12/09 09:26:33;;;;;;;;;;;;;;;;;;5054745;28;19944;-58
2022/12/09 09:28:59;;;;;;;;;;;;;;;;;;5054453;28;19915;-60
2022/12/09 09:31:25;;;;;;;;;;;;;;;;;;5054669;28;19963;-58
2022/12/09 09:33:51;;;;;;;;;;;;;;;;;;5054578;28;19908;-60
2022/12/09 09:36:19;;;;;;;;;;;;;;;;;;5054559;28;19919;-60
2022/12/09 09:38:45;;;;;;;;;;;;;;;;;;5054346;28;19915;-60
2022/12/09 09:41:10;;;;;;;;;;;;;;;;;;5054885;28;20000;-59
2022/12/09 09:43:36;;;;;;;;;;;;;;;;;;5054254;28;19916;-58
2022/12/09 09:46:02;;;;;;;;;;;;;;;;;;5054339;28;19944;-59
2022/12/09 09:48:28;;;;;;;;;;;;;;;;;;5036342;28;20371;-59
2022/12/09 09:50:54;;;;;;;;;;;;;;;;;;5054660;28;19909;-59
2022/12/09 09:53:20;;;;;;;;;;;;;;;;;;5054273;28;19909;-59
2022/12/09 09:55:46;;;;;;;;;;;;;;;;;;5054177;28;19920;-60
2022/12/09 09:58:12;;;;;;;;;;;;;;;;;;5053885;28;19915;-57
2022/12/09 10:00:38;;;;;;;;;;;;;;;;;;5036193;28;19952;-60
2022/12/09 10:03:04;;;;;;;;;;;;;;;;;;5053344;28;19994;-58
2022/12/09 10:05:30;;;;;;;;;;;;;;;;;;5054278;28;19951;-59
2022/12/09 10:07:56;;;;;;;;;;;;;;;;;;5054020;28;19909;-60
2022/12/09 10:10:21;;;;;;;;;;;;;;;;;;5053820;28;20434;-60
2022/12/09 10:12:47;;;;;;;;;;;;;;;;;;5053651;28;19920;-58
2022/12/09 10:15:13;;;;;;;;;;;;;;;;;;5053797;28;19917;-60
2022/12/09 10:17:39;;;;;;;;;;;;;;;;;;5053746;28;19913;-60
2022/12/09 10:20:05;;;;;;;;;;;;;;;;;;5053603;28;19963;-59
2022/12/09 10:22:31;;;;;;;;;;;;;;;;;;5053657;28;20335;-59
2022/12/09 10:24:57;;;;;;;;;;;;;;;;;;5053701;28;19908;-59
2022/12/09 10:27:23;;;;;;;;;;;;;;;;;;5053549;28;20419;-59
2022/12/09 10:29:49;;;;;;;;;;;;;;;;;;5053599;28;20270;-60
2022/12/09 10:32:15;;;;;;;;;;;;;;;;;;5053487;28;19908;-60
2022/12/09 10:34:41;;;;;;;;;;;;;;;;;;5053478;28;19916;-57
2022/12/09 10:37:07;;;;;;;;;;;;;;;;;;5053327;28;20111;-60
2022/12/09 10:39:33;;;;;;;;;;;;;;;;;;5053276;28;19909;-60
2022/12/09 10:44:43;;;;;;;;;;;;;;;;;;5052327;28;20467;-60
2022/12/09 10:47:09;;;;;;;;;;;;;;;;;;5052144;28;19967;-59
2022/12/09 10:49:35;;;;;;;;;;;;;;;;;;5051682;28;20001;-60
2022/12/09 10:52:03;;;;;;;;;;;;;;;;;;5034811;28;19999;-59
2022/12/09 10:54:29;;;;;;;;;;;;;;;;;;5053050;28;19912;-59
2022/12/09 10:56:55;;;;;;;;;;;;;;;;;;5053225;28;20050;-59
2022/12/09 10:59:21;;;;;;;;;;;;;;;;;;5054808;28;19916;-60
2022/12/09 11:01:47;;;;;;;;;;;;;;;;;;5072948;28;19909;-60
2022/12/09 11:04:13;;;;;;;;;;;;;;;;;;5072886;28;19916;-58
2022/12/09 11:06:38;;;;;;;;;;;;;;;;;;5072773;28;19909;-60
2022/12/09 11:09:04;;;;;;;;;;;;;;;;;;5071174;28;19912;-59
2022/12/09 11:11:30;;;;;;;;;;;;;;;;;;5068396;28;19923;-58
2022/12/09 11:13:56;;;;;;;;;;;;;;;;;;5072430;28;19996;-60
2022/12/09 11:16:22;;;;;;;;;;;;;;;;;;5071800;28;19923;-60
2022/12/09 11:18:48;;;;;;;;;;;;;;;;;;5071937;28;20351;-59
2022/12/09 11:21:14;;;;;;;;;;;;;;;;;;5072194;28;20317;-59
2022/12/09 11:23:40;;;;;;;;;;;;;;;;;;5072607;28;19995;-61
2022/12/09 11:26:06;;;;;;;;;;;;;;;;;;5072265;28;19920;-60
2022/12/09 11:28:32;;;;;;;;;;;;;;;;;;5070718;28;19921;-59
2022/12/09 11:30:58;;;;;;;;;;;;;;;;;;5072665;28;19916;-61
2022/12/09 11:33:24;;;;;;;;;;;;;;;;;;5072091;28;19912;-59
2022/12/09 11:35:50;;;;;;;;;;;;;;;;;;5071590;28;20007;-60
2022/12/09 11:38:16;;;;;;;;;;;;;;;;;;5071655;28;19924;-59
2022/12/09 11:40:42;;;;;;;;;;;;;;;;;;5051013;28;19913;-59
2022/12/09 11:43:08;;;;;;;;;;;;;;;;;;5060252;28;19963;-60
2022/12/09 11:45:34;;;;;;;;;;;;;;;;;;5056601;28;19958;-58
2022/12/09 11:48:00;;;;;;;;;;;;;;;;;;5061345;28;20354;-60
2022/12/09 11:50:30;;;;;;;;;;;;;;;;;;5071755;28;20384;-58
2022/12/09 11:52:55;;;;;;;;;;;;;;;;;;5071168;28;20309;-59
2022/12/09 11:55:21;;;;;;;;;;;;;;;;;;5071592;28;19966;-59
2022/12/09 11:57:47;;;;;;;;;;;;;;;;;;5071872;28;19977;-60
2022/12/09 12:00:14;;;;;;;;;;;;;;;;;;5047577;28;19919;-58
2022/12/09 12:02:40;;;;;;;;;;;;;;;;;;5071879;28;19913;-60
2022/12/09 12:05:06;;;;;;;;;;;;;;;;;;5066958;28;19913;-59
2022/12/09 12:07:32;;;;;;;;;;;;;;;;;;5071405;28;20369;-56
2022/12/09 12:09:58;;;;;;;;;;;;;;;;;;5070003;28;19924;-59
2022/12/09 12:12:24;;;;;;;;;;;;;;;;;;5068145;28;20375;-59
2022/12/09 12:14:49;;;;;;;;;;;;;;;;;;5072019;28;19909;-57
2022/12/09 12:17:15;;;;;;;;;;;;;;;;;;5071684;28;20434;-58
2022/12/09 12:19:41;;;;;;;;;;;;;;;;;;5071835;28;20008;-56
2022/12/09 12:22:07;;;;;;;;;;;;;;;;;;5070092;28;19924;-55
2022/12/09 12:24:34;;;;;;;;;;;;;;;;;;5068913;28;19967;-55
2022/12/09 12:27:00;;;;;;;;;;;;;;;;;;5051588;28;20358;-60
2022/12/09 12:29:26;;;;;;;;;;;;;;;;;;5070543;28;19916;-60
2022/12/09 12:31:52;;;;;;;;;;;;;;;;;;5071380;28;19927;-59
2022/12/09 12:34:18;;;;;;;;;;;;;;;;;;5070415;28;19923;-56
2022/12/09 12:36:44;;;;;;;;;;;;;;;;;;5065047;28;20003;-59
2022/12/09 12:39:10;;;;;;;;;;;;;;;;;;5074988;28;20411;-58
2022/12/09 12:41:35;;;;;;;;;;;;;;;;;;5075617;28;19909;-56
2022/12/09 12:46:46;;;;;;;;;;;;;;;;;;5074653;28;19919;-58
2022/12/09 12:49:12;;;;;;;;;;;;;;;;;;5074805;28;19917;-59
2022/12/09 12:51:38;;;;;;;;;;;;;;;;;;5074509;28;19919;-59
2022/12/09 12:54:04;;;;;;;;;;;;;;;;;;5063378;28;20415;-58
2022/12/09 12:56:30;;;;;;;;;;;;;;;;;;5074992;28;19917;-58
2022/12/09 12:58:56;;;;;;;;;;;;;;;;;;5057313;28;19916;-57
2022/12/09 13:01:24;;;;;;;;;;;;;;;;;;5058506;28;19919;-57
2022/12/09 13:03:50;;;;;;;;;;;;;;;;;;5074846;28;19917;-55
2022/12/09 13:06:16;;;;;;;;;;;;;;;;;;5074997;28;19965;-59
2022/12/09 13:08:42;;;;;;;;;;;;;;;;;;5074250;28;19916;-57
2022/12/09 13:11:08;;;;;;;;;;;;;;;;;;5074679;28;19970;-57
2022/12/09 13:13:34;;;;;;;;;;;;;;;;;;5073936;28;20327;-56
2022/12/09 13:16:00;;;;;;;;;;;;;;;;;;5073525;28;20376;-57
2022/12/09 13:18:26;;;;;;;;;;;;;;;;;;5073927;28;19912;-59
2022/12/09 13:20:52;;;;;;;;;;;;;;;;;;5074257;28;19966;-56
2022/12/09 13:23:18;;;;;;;;;;;;;;;;;;5074492;28;19916;-57
2022/12/09 13:25:44;;;;;;;;;;;;;;;;;;5074451;28;19913;-59
2022/12/09 13:28:10;;;;;;;;;;;;;;;;;;5074335;28;19920;-57
2022/12/09 13:30:36;;;;;;;;;;;;;;;;;;5074168;28;20400;-58
2022/12/09 13:33:02;;;;;;;;;;;;;;;;;;5074246;28;19919;-56
2022/12/09 13:35:28;;;;;;;;;;;;;;;;;;5056722;28;19920;-60
2022/12/09 13:37:54;;;;;;;;;;;;;;;;;;5072975;28;19917;-57
2022/12/09 13:40:19;;;;;;;;;;;;;;;;;;5073924;28;19912;-59
2022/12/09 13:43:06;;;;;;;;;;;;;;;;;;5073661;28;19956;-56
2022/12/09 13:45:32;;;;;;;;;;;;;;;;;;5073643;28;19912;-58
2022/12/09 13:47:57;;;;;;;;;;;;;;;;;;5056400;28;19912;-56
2022/12/09 13:50:25;;;;;;;;;;;;;;;;;;5073718;28;19909;-57
2022/12/09 13:52:51;;;;;;;;;;;;;;;;;;5056216;28;19913;-56
2022/12/09 13:55:17;;;;;;;;;;;;;;;;;;5074090;28;19962;-55
2022/12/09 13:57:43;;;;;;;;;;;;;;;;;;5074010;28;19923;-58
2022/12/09 14:00:09;;;;;;;;;;;;;;;;;;5061157;28;19908;-59
2022/12/09 14:02:34;;;;;;;;;;;;;;;;;;5073972;28;19912;-58
2022/12/09 14:05:00;;;;;;;;;;;;;;;;;;5074205;28;19908;-57
2022/12/09 14:07:26;;;;;;;;;;;;;;;;;;5073980;28;19920;-57
2022/12/09 14:09:52;;;;;;;;;;;;;;;;;;5062887;28;19912;-60
2022/12/09 14:12:18;;;;;;;;;;;;;;;;;;5073703;28;19961;-57
2022/12/09 14:14:44;;;;;;;;;;;;;;;;;;5073958;28;19999;-59
2022/12/09 14:17:10;;;;;;;;;;;;;;;;;;5073675;28;19912;-53
2022/12/09 14:19:36;;;;;;;;;;;;;;;;;;5068721;28;19920;-54
2022/12/09 14:22:02;;;;;;;;;;;;;;;;;;5068584;28;19960;-55
2022/12/09 14:24:28;;;;;;;;;;;;;;;;;;5050595;28;20037;-57
2022/12/09 14:26:54;;;;;;;;;;;;;;;;;;5073230;28;19912;-53
2022/12/09 14:29:20;;;;;;;;;;;;;;;;;;5053567;28;19909;-56
2022/12/09 14:31:46;;;;;;;;;;;;;;;;;;5089179;28;20277;-55
2022/12/09 14:34:12;;;;;;;;;;;;;;;;;;5093694;28;19939;-54
2022/12/09 14:36:38;;;;;;;;;;;;;;;;;;5093741;28;19951;-57
2022/12/09 14:39:04;;;;;;;;;;;;;;;;;;5092927;28;20360;-58
2022/12/09 14:41:30;;;;;;;;;;;;;;;;;;5072407;28;19921;-55
2022/12/09 14:43:56;;;;;;;;;;;;;;;;;;5073156;28;19970;-55
2022/12/09 14:46:22;;;;;;;;;;;;;;;;;;5073000;28;19959;-57
2022/12/09 14:48:48;;;;;;;;;;;;;;;;;;5067640;28;19916;-54
2022/12/09 14:51:14;;;;;;;;;;;;;;;;;;5072348;28;20427;-57
2022/12/09 14:53:40;;;;;;;;;;;;;;;;;;5062628;28;19921;-58
2022/12/09 14:56:06;;;;;;;;;;;;;;;;;;5048742;28;19933;-52
2022/12/09 14:58:32;;;;;;;;;;;;;;;;;;5066078;28;20308;-54
2022/12/09 15:00:58;;;;;;;;;;;;;;;;;;5064099;28;20285;-56
2022/12/09 15:03:24;;;;;;;;;;;;;;;;;;5047645;28;19934;-52
2022/12/09 15:05:50;;;;;;;;;;;;;;;;;;5048557;28;19913;-54
2022/12/09 15:08:16;;;;;;;;;;;;;;;;;;5043877;28;19951;-55
2022/12/09 15:10:42;;;;;;;;;;;;;;;;;;5044346;28;19908;-52
2022/12/09 15:13:09;;;;;;;;;;;;;;;;;;5067382;28;19912;-57
2022/12/09 15:15:35;;;;;;;;;;;;;;;;;;5046029;28;19948;-58
2022/12/09 15:18:01;;;;;;;;;;;;;;;;;;5061468;28;19908;-54
2022/12/09 15:20:27;;;;;;;;;;;;;;;;;;5063604;28;20368;-56
2022/12/09 15:22:53;;;;;;;;;;;;;;;;;;5068020;28;20324;-57
2022/12/09 15:25:19;;;;;;;;;;;;;;;;;;5068805;28;19916;-53
2022/12/09 15:27:44;;;;;;;;;;;;;;;;;;5070971;28;20137;-57
2022/12/09 15:30:11;;;;;;;;;;;;;;;;;;5066441;28;19920;-55
2022/12/09 15:32:37;;;;;;;;;;;;;;;;;;5053514;28;19913;-53
2022/12/09 15:35:03;;;;;;;;;;;;;;;;;;5071960;28;20319;-56
2022/12/09 15:37:28;;;;;;;;;;;;;;;;;;5052099;28;20438;-56
2022/12/09 15:39:54;;;;;;;;;;;;;;;;;;5067007;28;20347;-53
2022/12/09 15:42:24;;;;;;;;;;;;;;;;;;5055934;28;19943;-58
2022/12/09 15:44:52;;;;;;;;;;;;;;;;;;5072980;28;19909;-54
2022/12/09 15:47:18;;;;;;;;;;;;;;;;;;5072172;28;19913;-53
2022/12/09 15:49:44;;;;;;;;;;;;;;;;;;5072000;28;19909;-53
2022/12/09 15:52:10;;;;;;;;;;;;;;;;;;5062529;28;20300;-54
2022/12/09 15:54:36;;;;;;;;;;;;;;;;;;5056056;28;19924;-56
2022/12/09 15:57:02;;;;;;;;;;;;;;;;;;5060826;28;19912;-55
2022/12/09 15:59:28;;;;;;;;;;;;;;;;;;5061965;28;19995;-57
2022/12/09 16:01:54;;;;;;;;;;;;;;;;;;5066065;28;20046;-59
2022/12/09 16:04:20;;;;;;;;;;;;;;;;;;5062064;28;19913;-56
2022/12/09 16:06:45;;;;;;;;;;;;;;;;;;5052033;28;19912;-57
2022/12/09 16:09:12;;;;;;;;;;;;;;;;;;5051722;28;20003;-55
2022/12/09 16:11:38;;;;;;;;;;;;;;;;;;5051583;28;19912;-56
2022/12/09 16:14:03;;;;;;;;;;;;;;;;;;5050746;28;20395;-56
2022/12/09 16:16:29;;;;;;;;;;;;;;;;;;5033800;28;19940;-58
2022/12/09 16:18:55;;;;;;;;;;;;;;;;;;5051715;28;20281;-53
2022/12/09 16:21:21;;;;;;;;;;;;;;;;;;5065990;28;20385;-53
2022/12/09 16:23:47;;;;;;;;;;;;;;;;;;5068478;28;20408;-53
2022/12/09 16:26:13;;;;;;;;;;;;;;;;;;5058291;28;19927;-53
2022/12/09 16:28:39;;;;;;;;;;;;;;;;;;5051653;28;19916;-54
2022/12/09 16:31:05;;;;;;;;;;;;;;;;;;5051736;28;19952;-54
2022/12/09 16:33:31;;;;;;;;;;;;;;;;;;5052096;28;19908;-53
2022/12/09 16:35:57;;;;;;;;;;;;;;;;;;5051517;28;19917;-53
2022/12/09 16:38:23;;;;;;;;;;;;;;;;;;5051373;28;19909;-53
2022/12/09 16:40:49;;;;;;;;;;;;;;;;;;5062270;28;19962;-53
2022/12/09 16:43:15;;;;;;;;;;;;;;;;;;5068644;28;19917;-55